Vermontville, Michigan
Current Conditions -  °F | °C
As of 10:15 AM on Thursday 23 Oct 2014 (Local Time) from KFPK Reporting Station
Moderate Fog Moderate Fog  
Wind Chill: 36°   Ceiling: 100
Heat Index: 36°   Visibility: 0mi
Dew Point: 35°   Wind: 0mph
Humidity: 96%   Direction: NA
Pressure: 30.23"   Gusts: NA
Location:  42.63°N, 85.02°W
Report Text: KFPK 231415Z AUTO 00000KT M1/4SM FG OVC001 02/02 A3023 RMK AO2 T00220016
Loading
Personal Weather Stations






























Interactive Weather Map
Tropical Storm Tracking
New forecast layout! Learn more

10-Day Weather Forecast

Advertisements
Track Severe Weather on mobile